• Join FlightAware (Why Join?)
  • Login
  • US Flag 
07:32PM EST


 

Airport Tracker/Info


-or-


 

Live Flight TrackerFlight Track Log ✈ UAL6044 ✈ 15-Apr-2013 ✈ KIND - KIAD

Flight Track Log - Related Links

Times and Time Zones

All times are in EDT time to prevent confusion due to time zone crossing. See the UAL6044 flight status page for this flight to view local times or setup timezone preferences in your user account.

Time Position Orientation Groundspeed Altitude Reporting Facility
EDT Latitude Longitude Course Direction KTS MPH feet Rate Location/Type
02:32PM 39.6667 -86.3000 159° South 222 255 3,900  Level Indianapolis TRACON
02:33PM 39.6833 -86.2167 75° East 288 331 6,100 2,220 Climbing Indianapolis TRACON
02:34PM 39.7953 -85.7058 79° East  Level FlightAware Approximate
02:34PM 39.7261 -86.0731 69° East 304 350 9,500  Level Indianapolis Center
02:35PM 39.8179 -85.5611 74° East  Level FlightAware Approximate
02:35PM 39.7519 -85.9636 73° East 315 362 11,300  Level Indianapolis Center
02:36PM 39.8495 -85.4191 74° East  Level FlightAware Approximate
02:36PM 39.7764 -85.8211 77° East 359 413 13,100  Level Indianapolis Center
02:37PM 39.8017 -85.6839 76° East 382 440 15,000 1,860 Climbing Indianapolis Center
02:38PM 39.8283 -85.5456 76° East 390 449 17,000 1,680 Climbing Indianapolis Center
02:39PM 39.8536 -85.4047 77° East 394 453 18,500 1,440 Climbing Indianapolis Center
02:40PM 39.8800 -85.2597 77° East 404 465 20,000 1,440 Climbing Indianapolis Center
02:41PM 39.8900 -85.1067 85° East 420 483 21,500 1,260 Climbing Indianapolis Center
02:42PM 39.8972 -84.9489 87° East 432 497 22,700 1,080 Climbing Indianapolis Center
02:43PM 39.9039 -84.7858 87° East 445 512 23,800 600 Climbing Indianapolis Center
02:44PM 39.9139 -84.5861 86° East 470 541 24,000 60 Climbing Indianapolis Center
02:45PM 39.9200 -84.4058 87° East 489 563 24,000  Level Indianapolis Center
02:46PM 39.9289 -84.2203 86° East 504 580 24,000  Level Indianapolis Center
02:48PM 39.9372 -84.0439 86° East 490 564 24,000  Level Indianapolis Center
02:49PM 39.9431 -83.8692 87° East 478 550 24,000  Level Indianapolis Center
02:50PM 39.9492 -83.6947 87° East 475 547 24,000  Level Indianapolis Center
02:51PM 39.9553 -83.5164 87° East 480 552 24,000  Level Indianapolis Center
02:52PM 39.9622 -83.3322 87° East 492 566 24,000 180 Level Indianapolis Center
02:53PM 39.9669 -83.1525 88° East 489 563 24,400 480 Climbing Indianapolis Center
02:54PM 39.9722 -82.9792 88° East 477 549 25,000 240 Climbing Indianapolis Center
02:55PM 39.9772 -82.8072 88° East 471 542 25,000  Level Indianapolis Center
02:56PM 39.9817 -82.6322 88° East 477 549 25,000  Level Indianapolis Center
02:57PM 39.9864 -82.4564 88° East 480 552 25,000  Level Indianapolis Center
02:58PM 39.9919 -82.2489 88° East 486 559 25,000  Level Indianapolis Center
02:59PM 39.9756 -82.0764 97° East 477 549 25,000  Level Indianapolis Center
03:00PM 39.9450 -81.9033 103° East 484 557 25,000  Level Indianapolis Center
03:01PM 39.9128 -81.7303 104° East 486 559 25,000  Level Indianapolis Center
03:02PM 39.8719 -81.5614 107° East 487 560 25,000  Level Indianapolis Center
03:02PM 39.8550 -81.5025 111° Southeast 475 547 25,000  Level Cleveland Center
03:03PM 39.8250 -81.3344 103° East 469 540 25,000  Level Cleveland Center
03:04PM 39.7967 -81.1639 102° East 469 540 25,000  Level Cleveland Center
03:05PM 39.7661 -80.9964 103° East 469 540 25,000  Level Cleveland Center
03:06PM 39.7375 -80.8286 102° East 469 540 25,000  Level Cleveland Center
03:07PM 39.7064 -80.6586 103° East 474 545 25,000  Level Cleveland Center
03:08PM 39.6753 -80.4858 103° East 474 545 25,000  Level Cleveland Center
03:10PM 39.6267 -80.2258 104° East 469 540 25,000  Level Washington Center
03:11PM 39.5992 -80.0733 103° East 456 525 25,000  Level Washington Center
03:12PM 39.5694 -79.9178 104° East 441 507 25,000  Level Washington Center
03:13PM 39.5414 -79.7656 103° East 436 502 25,000  Level Washington Center
03:14PM 39.5153 -79.6133 102° East 436 502 25,000  Level Washington Center
03:15PM 39.4869 -79.4611 104° East 436 502 25,000  Level Washington Center
03:16PM 39.4569 -79.2847 102° East 442 509 25,000 -300 Level Washington Center
03:17PM 39.4236 -79.1461 107° East 447 514 24,400 -1,560 Descending Washington Center
03:18PM 39.3989 -78.9917 102° East 447 514 21,900 -2,580 Descending Washington Center
03:19PM 39.3717 -78.8481 104° East 426 490 19,200 -2,340 Descending Washington Center
03:20PM 39.3483 -78.7128 103° East 407 468 17,200 -2,220 Descending Washington Center
03:21PM 39.3244 -78.5831 103° East 387 445 14,900 -2,280 Descending Washington Center
03:22PM 39.3003 -78.4561 104° East 374 430 12,700 -1,920 Descending Washington Center
03:23PM 39.2442 -78.3653 129° Southeast 334 384 11,100 -1,560 Descending Washington Center
03:24PM 39.1853 -78.2908 136° Southeast 313 360 9,600 -1,380 Descending Washington Center
03:25PM 39.1478 -78.2039 119° Southeast 293 337 8,400 -1,200 Descending Washington Center
03:26PM 39.1247 -78.1147 108° East 272 313 7,200 -1,140 Descending Washington Center
03:27PM 39.0972 -78.0308 113° Southeast 255 293 6,200 -1,080 Descending Washington Center
03:28PM 39.0739 -77.9417 109° East 249 287 5,100 -600 Descending Washington Center
03:29PM 39.0525 -77.8636 109° East 236 272 5,000 -360 Descending Washington Center
03:30PM 39.0350 -77.7989 109° East 210 242 4,400 -600 Descending Washington Center
03:32PM 38.9833 -77.6500 114° Southeast 190 219 3,000 -600 Descending Potomac TRACON
03:33PM 38.9667 -77.5833 108° East 172 198 2,400 -600 Descending Potomac TRACON